createdAt,value
2018-03-06T00:02:13.424Z,3.80
2018-03-06T00:04:41.666Z,3.70
2018-03-06T00:07:09.118Z,3.70
2018-03-06T00:09:36.588Z,3.70
2018-03-06T00:12:04.086Z,3.70
2018-03-06T00:14:32.918Z,3.60
2018-03-06T00:17:00.378Z,3.60
2018-03-06T00:19:27.847Z,3.70
2018-03-06T00:21:55.307Z,3.80
2018-03-06T00:24:23.651Z,3.70
2018-03-06T00:26:51.135Z,3.80
2018-03-06T00:29:18.647Z,3.80
2018-03-06T00:31:46.976Z,3.80
2018-03-06T00:34:14.520Z,3.70
2018-03-06T00:36:42.027Z,3.70
2018-03-06T00:39:10.298Z,3.70
2018-03-06T00:41:37.860Z,3.60
2018-03-06T00:44:05.406Z,3.70
2018-03-06T00:46:33.687Z,3.70
2018-03-06T00:49:01.169Z,3.60
2018-03-06T00:51:28.640Z,3.70
2018-03-06T00:53:56.137Z,3.70
2018-03-06T00:56:23.625Z,3.70
2018-03-06T00:58:51.082Z,3.70
2018-03-06T01:01:18.582Z,3.70
2018-03-06T01:03:46.068Z,3.60
2018-03-06T01:06:13.541Z,3.60
2018-03-06T01:08:41.026Z,3.60
2018-03-06T01:11:08.567Z,3.60
2018-03-06T01:13:36.834Z,3.60
2018-03-06T01:16:04.302Z,3.50
2018-03-06T01:18:32.566Z,3.50
2018-03-06T01:21:00.026Z,3.50
2018-03-06T01:23:27.478Z,3.50
2018-03-06T01:25:54.989Z,3.50
2018-03-06T01:28:22.472Z,3.50
2018-03-06T01:30:49.944Z,3.50
2018-03-06T01:33:17.418Z,3.40
2018-03-06T01:35:45.646Z,3.50
2018-03-06T01:38:13.105Z,3.40
2018-03-06T01:40:40.592Z,3.40
2018-03-06T01:43:08.053Z,3.40
2018-03-06T01:45:36.355Z,3.40
2018-03-06T01:48:03.897Z,3.40
2018-03-06T01:50:31.359Z,3.30
2018-03-06T01:52:59.617Z,3.30
2018-03-06T01:55:27.094Z,3.30
2018-03-06T01:57:55.374Z,3.30
2018-03-06T02:00:23.622Z,3.40
2018-03-06T02:02:51.117Z,3.30
2018-03-06T02:05:18.606Z,3.40
2018-03-06T02:07:46.114Z,3.30
2018-03-06T02:10:14.392Z,3.40
2018-03-06T02:12:42.664Z,3.40
2018-03-06T02:15:11.910Z,3.40
2018-03-06T02:17:39.391Z,3.40
2018-03-06T02:20:06.912Z,3.40
2018-03-06T02:22:34.382Z,3.30
2018-03-06T02:25:01.887Z,3.30
2018-03-06T02:27:29.395Z,3.30
2018-03-06T02:29:56.868Z,3.30
2018-03-06T02:32:24.350Z,3.30
2018-03-06T02:34:51.854Z,3.30
2018-03-06T02:37:19.323Z,3.30
2018-03-06T02:39:46.799Z,3.30
2018-03-06T02:42:18.185Z,3.20
2018-03-06T02:44:50.941Z,3.20
2018-03-06T02:47:21.617Z,3.30
2018-03-06T02:49:53.363Z,3.20
2018-03-06T02:52:21.703Z,3.20
2018-03-06T02:54:49.236Z,3.20
2018-03-06T02:57:16.718Z,3.20
2018-03-06T02:59:53.117Z,3.20
2018-03-06T03:02:33.093Z,3.20
2018-03-06T03:05:00.912Z,3.30
2018-03-06T03:07:28.375Z,3.30
2018-03-06T03:09:55.846Z,3.30
2018-03-06T03:12:24.082Z,3.30
2018-03-06T03:14:51.577Z,3.30
2018-03-06T03:17:19.835Z,3.20
2018-03-06T03:19:47.306Z,3.20
2018-03-06T03:22:14.850Z,3.20
2018-03-06T03:24:42.438Z,3.20
2018-03-06T03:27:10.035Z,3.20
2018-03-06T03:29:37.515Z,3.20
2018-03-06T03:32:05.006Z,3.20
2018-03-06T03:34:33.987Z,3.20
2018-03-06T03:37:02.223Z,3.20
2018-03-06T03:39:29.696Z,3.20
2018-03-06T03:41:57.174Z,3.30
2018-03-06T03:44:24.658Z,3.20
2018-03-06T03:46:52.908Z,3.30
2018-03-06T03:49:20.415Z,3.30
2018-03-06T03:51:47.878Z,3.30
2018-03-06T03:54:15.350Z,3.20
2018-03-06T03:56:42.838Z,3.20
2018-03-06T03:59:10.422Z,3.20
2018-03-06T04:01:37.911Z,3.10
2018-03-06T04:04:05.376Z,3.10
2018-03-06T04:06:32.855Z,3.00
2018-03-06T04:09:00.326Z,3.00
2018-03-06T04:11:28.595Z,2.90
2018-03-06T04:13:56.073Z,2.90
2018-03-06T04:16:23.771Z,2.90
2018-03-06T04:18:51.233Z,2.90
2018-03-06T04:21:18.706Z,2.90
2018-03-06T04:23:46.335Z,2.90
2018-03-06T04:26:14.687Z,2.90
2018-03-06T04:28:42.922Z,2.80
2018-03-06T04:31:10.409Z,2.80
2018-03-06T04:33:38.666Z,2.80
2018-03-06T04:36:06.156Z,2.80
2018-03-06T04:38:33.642Z,2.80
2018-03-06T04:41:01.135Z,2.80
2018-03-06T04:43:30.461Z,2.70
2018-03-06T04:45:58.256Z,2.70
2018-03-06T04:48:25.738Z,2.70
2018-03-06T04:50:53.222Z,2.60
2018-03-06T04:53:20.703Z,2.60
2018-03-06T04:55:48.246Z,2.60
2018-03-06T04:58:16.498Z,2.50
2018-03-06T05:00:43.974Z,2.50
2018-03-06T05:03:12.259Z,2.50
2018-03-06T05:05:40.526Z,2.50
2018-03-06T05:08:08.180Z,2.50
2018-03-06T05:10:35.730Z,2.50
2018-03-06T05:13:03.304Z,2.50
2018-03-06T05:15:30.706Z,2.50
2018-03-06T05:17:58.328Z,2.40
2018-03-06T05:20:26.653Z,2.40
2018-03-06T05:22:54.161Z,2.40
2018-03-06T05:25:22.405Z,2.40
2018-03-06T05:27:49.985Z,2.40
2018-03-06T05:30:17.469Z,2.40
2018-03-06T05:32:45.725Z,2.40
2018-03-06T05:35:13.964Z,2.40
2018-03-06T05:37:41.470Z,2.40
2018-03-06T05:40:09.791Z,2.40
2018-03-06T05:42:38.086Z,2.30
2018-03-06T05:45:06.274Z,2.30
2018-03-06T05:47:33.758Z,2.30
2018-03-06T05:50:01.288Z,2.30
2018-03-06T05:52:28.755Z,2.30
2018-03-06T05:54:57.117Z,2.20
2018-03-06T05:57:24.602Z,2.20
2018-03-06T05:59:52.933Z,2.20
2018-03-06T06:02:20.435Z,2.20
2018-03-06T06:04:48.778Z,2.30
2018-03-06T06:07:16.282Z,2.20
2018-03-06T06:09:43.760Z,2.20
2018-03-06T06:12:11.275Z,2.20
2018-03-06T06:14:38.747Z,2.20
2018-03-06T06:17:06.979Z,2.10
2018-03-06T06:19:34.467Z,2.10
2018-03-06T06:22:01.931Z,2.20
2018-03-06T06:24:30.236Z,2.10
2018-03-06T06:26:58.467Z,2.10
2018-03-06T06:29:25.930Z,2.10
2018-03-06T06:31:54.177Z,2.20
2018-03-06T06:34:21.770Z,2.10
2018-03-06T06:36:49.279Z,2.20
2018-03-06T06:39:16.745Z,2.20
2018-03-06T06:41:44.248Z,2.30
2018-03-06T06:44:12.474Z,2.40
2018-03-06T06:46:39.955Z,2.40
2018-03-06T06:49:07.480Z,2.50
2018-03-06T06:51:34.956Z,2.50
2018-03-06T06:54:02.419Z,2.60
2018-03-06T06:56:30.061Z,2.60
2018-03-06T06:58:57.530Z,2.70
2018-03-06T07:01:25.801Z,2.70
2018-03-06T07:03:53.264Z,2.70
2018-03-06T07:06:20.727Z,2.70
2018-03-06T07:08:48.193Z,2.70
2018-03-06T07:11:15.688Z,2.80
2018-03-06T07:13:43.914Z,2.90
2018-03-06T07:16:11.393Z,2.90
2018-03-06T07:18:38.877Z,3.00
2018-03-06T07:21:06.343Z,3.00
2018-03-06T07:23:33.855Z,3.00
2018-03-06T07:26:01.330Z,3.10
2018-03-06T07:28:29.584Z,3.20
2018-03-06T07:30:57.043Z,3.20
2018-03-06T07:33:24.514Z,3.20
2018-03-06T07:35:52.020Z,3.30
2018-03-06T07:38:19.481Z,3.30
2018-03-06T07:40:46.963Z,3.30
2018-03-06T07:43:14.455Z,3.20
2018-03-06T07:45:42.680Z,3.20
2018-03-06T07:48:10.173Z,3.20
2018-03-06T07:50:37.630Z,3.20
2018-03-06T07:53:05.086Z,3.30
2018-03-06T07:55:33.391Z,3.50
2018-03-06T07:58:00.868Z,3.50
2018-03-06T08:00:28.329Z,3.60
2018-03-06T08:02:55.828Z,3.70
2018-03-06T08:05:23.298Z,3.80
2018-03-06T08:07:51.595Z,3.80
2018-03-06T08:10:19.062Z,3.80
2018-03-06T08:12:46.560Z,3.90
2018-03-06T08:15:14.042Z,3.90
2018-03-06T08:17:42.298Z,4.00
2018-03-06T08:20:09.761Z,4.00
2018-03-06T08:22:37.218Z,4.10
2018-03-06T08:25:06.195Z,4.30
2018-03-06T08:27:33.686Z,4.30
2018-03-06T08:30:01.925Z,4.50
2018-03-06T08:32:29.407Z,4.50
2018-03-06T08:34:56.874Z,4.60
2018-03-06T08:37:25.100Z,4.90
2018-03-06T08:39:52.723Z,4.80
2018-03-06T08:42:21.003Z,5.10
2018-03-06T08:44:49.269Z,5.10
2018-03-06T08:47:16.703Z,5.00
2018-03-06T08:49:44.162Z,5.20
2018-03-06T08:52:11.621Z,5.20
2018-03-06T08:54:39.125Z,5.30
2018-03-06T08:57:06.594Z,5.20
2018-03-06T08:59:34.092Z,5.30
2018-03-06T09:02:02.342Z,5.30
2018-03-06T09:04:29.794Z,5.30
2018-03-06T09:06:57.259Z,5.40
2018-03-06T09:09:24.743Z,5.40
2018-03-06T09:11:52.303Z,5.40
2018-03-06T09:14:19.769Z,5.50
2018-03-06T09:16:48.003Z,5.60
2018-03-06T09:19:15.483Z,5.60
2018-03-06T09:21:43.718Z,5.60
2018-03-06T09:24:12.239Z,5.60
2018-03-06T09:26:39.704Z,5.60
2018-03-06T09:29:07.159Z,5.60
2018-03-06T09:31:34.655Z,5.60
2018-03-06T09:34:02.128Z,5.60
2018-03-06T09:36:29.591Z,5.70
2018-03-06T09:38:57.086Z,5.90
2018-03-06T09:41:24.549Z,6.10
2018-03-06T09:43:52.012Z,6.40
2018-03-06T09:46:20.273Z,6.70
2018-03-06T09:48:47.734Z,6.70
2018-03-06T09:51:16.037Z,6.90
2018-03-06T09:53:43.586Z,6.80
2018-03-06T09:56:11.827Z,7.10
2018-03-06T09:58:39.286Z,7.00
2018-03-06T10:01:06.786Z,7.20
2018-03-06T10:03:34.250Z,7.30
2018-03-06T10:06:01.715Z,7.40
2018-03-06T10:08:29.223Z,7.50
2018-03-06T10:10:56.684Z,7.60
2018-03-06T10:13:24.138Z,7.60
2018-03-06T10:15:51.625Z,7.60
2018-03-06T10:18:19.145Z,7.50
2018-03-06T10:20:46.603Z,7.50
2018-03-06T10:23:14.083Z,7.70
2018-03-06T10:25:42.362Z,8.00
2018-03-06T10:28:09.853Z,8.00
2018-03-06T10:30:38.179Z,8.40
2018-03-06T10:33:05.651Z,8.40
2018-03-06T10:35:33.929Z,8.60
2018-03-06T10:38:01.451Z,8.60
2018-03-06T10:40:28.990Z,8.60
2018-03-06T10:42:56.534Z,8.60
2018-03-06T10:45:24.000Z,8.60
2018-03-06T10:47:51.479Z,8.70
2018-03-06T10:50:18.930Z,8.60
2018-03-06T10:52:46.423Z,8.60
2018-03-06T10:55:14.722Z,8.80
2018-03-06T10:57:42.142Z,8.80
2018-03-06T11:00:09.680Z,8.80
2018-03-06T11:02:47.037Z,8.90
2018-03-06T11:05:14.494Z,8.90
2018-03-06T11:07:41.964Z,9.00
2018-03-06T11:10:09.446Z,9.00
2018-03-06T11:12:36.919Z,9.10
2018-03-06T11:15:04.379Z,9.10
2018-03-06T11:17:31.841Z,9.00
2018-03-06T11:20:00.100Z,9.40
2018-03-06T11:22:28.469Z,9.40
2018-03-06T11:24:55.930Z,9.30
2018-03-06T11:27:23.408Z,9.50
2018-03-06T11:29:50.892Z,9.50
2018-03-06T11:32:18.399Z,9.50
2018-03-06T11:34:45.871Z,9.70
2018-03-06T11:37:13.340Z,9.90
2018-03-06T11:39:41.565Z,9.70
2018-03-06T11:42:09.082Z,9.70
2018-03-06T11:44:37.314Z,10.00
2018-03-06T11:47:04.770Z,10.00
2018-03-06T11:49:32.343Z,10.00
2018-03-06T11:51:59.879Z,10.00
2018-03-06T11:54:28.326Z,10.10
2018-03-06T11:56:55.820Z,10.00
2018-03-06T11:59:23.332Z,10.00
2018-03-06T12:01:50.791Z,9.90
2018-03-06T12:04:18.271Z,10.00
2018-03-06T12:06:45.772Z,9.80
2018-03-06T12:09:13.234Z,10.00
2018-03-06T12:11:40.739Z,10.10
2018-03-06T12:14:08.248Z,10.10
2018-03-06T12:16:35.711Z,10.20
2018-03-06T12:19:03.961Z,10.20
2018-03-06T12:21:31.917Z,10.20
2018-03-06T12:24:00.385Z,10.10
2018-03-06T12:26:27.887Z,10.20
2018-03-06T12:28:55.359Z,10.20
2018-03-06T12:31:23.578Z,10.90
2018-03-06T12:33:51.074Z,10.90
2018-03-06T12:36:18.640Z,11.20
2018-03-06T12:38:47.379Z,11.60
2018-03-06T12:41:14.878Z,11.50
2018-03-06T12:43:42.427Z,11.80
2018-03-06T12:46:10.045Z,12.00
2018-03-06T12:48:37.559Z,12.20
2018-03-06T12:51:05.843Z,12.50
2018-03-06T12:53:34.107Z,12.80
2018-03-06T12:56:02.529Z,12.50
2018-03-06T12:58:30.029Z,12.40
2018-03-06T13:00:57.608Z,12.30
2018-03-06T13:03:25.153Z,12.40
2018-03-06T13:05:52.616Z,12.30
2018-03-06T13:08:20.176Z,12.30
2018-03-06T13:10:47.687Z,12.10
2018-03-06T13:13:15.140Z,11.90
2018-03-06T13:15:42.600Z,11.90
2018-03-06T13:18:10.118Z,11.60
2018-03-06T13:20:38.340Z,12.00
2018-03-06T13:23:05.845Z,12.00
2018-03-06T13:25:33.347Z,12.10
2018-03-06T13:28:00.811Z,12.10
2018-03-06T13:30:28.294Z,12.00
2018-03-06T13:32:55.763Z,11.90
2018-03-06T13:35:23.222Z,11.70
2018-03-06T13:37:50.727Z,11.70
2018-03-06T13:40:18.202Z,11.50
2018-03-06T13:42:45.694Z,11.50
2018-03-06T13:45:13.179Z,11.40
2018-03-06T13:47:40.656Z,11.50
2018-03-06T13:50:08.190Z,11.30
2018-03-06T13:52:35.764Z,11.30
2018-03-06T13:55:04.105Z,11.40
2018-03-06T13:57:31.559Z,11.30
2018-03-06T13:59:59.019Z,11.10
2018-03-06T14:02:26.567Z,11.10
2018-03-06T14:04:54.066Z,11.10
2018-03-06T14:07:21.595Z,11.20
2018-03-06T14:09:49.915Z,11.00
2018-03-06T14:12:17.375Z,11.00
2018-03-06T14:14:45.958Z,10.90
2018-03-06T14:17:13.439Z,10.90
2018-03-06T14:19:40.904Z,10.70
2018-03-06T14:22:08.394Z,10.70
2018-03-06T14:24:36.682Z,10.50
2018-03-06T14:27:04.147Z,10.50
2018-03-06T14:29:31.638Z,10.50
2018-03-06T14:31:59.110Z,10.40
2018-03-06T14:34:26.687Z,10.40
2018-03-06T14:36:54.151Z,10.50
2018-03-06T14:39:22.453Z,10.50
2018-03-06T14:41:50.679Z,10.50
2018-03-06T14:44:18.134Z,10.70
2018-03-06T14:46:47.122Z,10.60
2018-03-06T14:49:14.602Z,10.60
2018-03-06T14:51:42.839Z,10.50
2018-03-06T14:54:11.098Z,10.50
2018-03-06T14:56:38.587Z,10.50
2018-03-06T14:59:06.043Z,10.60
2018-03-06T15:01:33.532Z,10.60
2018-03-06T15:04:01.789Z,10.70
2018-03-06T15:06:30.387Z,10.70
2018-03-06T15:08:57.937Z,10.70
2018-03-06T15:11:25.404Z,10.70
2018-03-06T15:13:54.656Z,10.70
2018-03-06T15:16:22.126Z,10.70
2018-03-06T15:18:50.316Z,10.80
2018-03-06T15:21:17.771Z,10.80
2018-03-06T15:23:45.273Z,10.90
2018-03-06T15:26:12.796Z,10.80
2018-03-06T15:28:40.346Z,11.00
2018-03-06T15:31:07.970Z,11.00
2018-03-06T15:33:35.432Z,11.00
2018-03-06T15:36:03.007Z,11.10
2018-03-06T15:38:30.522Z,11.20
2018-03-06T15:40:58.830Z,11.00
2018-03-06T15:43:26.362Z,11.00
2018-03-06T15:45:53.921Z,10.90
2018-03-06T15:48:21.514Z,10.80
2018-03-06T15:50:50.081Z,10.70
2018-03-06T15:53:17.644Z,10.60
2018-03-06T15:55:46.792Z,10.60
2018-03-06T15:58:15.321Z,10.50
2018-03-06T16:00:42.893Z,10.40
2018-03-06T16:03:11.183Z,10.20
2018-03-06T16:05:38.706Z,10.20
2018-03-06T16:08:07.176Z,10.10
2018-03-06T16:10:34.705Z,10.10
2018-03-06T16:13:03.056Z,10.00
2018-03-06T16:15:32.081Z,10.00
2018-03-06T16:18:00.393Z,10.00
2018-03-06T16:20:27.917Z,10.00
2018-03-06T16:22:56.453Z,10.00
2018-03-06T16:25:23.981Z,10.00
2018-03-06T16:27:51.552Z,9.90
2018-03-06T16:30:19.169Z,9.90
2018-03-06T16:32:47.513Z,9.80
2018-03-06T16:35:15.030Z,9.80
2018-03-06T16:37:42.725Z,9.60
2018-03-06T16:40:10.869Z,9.50
2018-03-06T16:42:38.388Z,9.40
2018-03-06T16:45:06.072Z,9.40
2018-03-06T16:47:34.363Z,9.40
2018-03-06T16:50:01.893Z,9.30
2018-03-06T16:52:30.248Z,9.20
2018-03-06T16:54:58.495Z,9.20
2018-03-06T16:57:26.168Z,9.20
2018-03-06T16:59:53.773Z,9.20
2018-03-06T17:02:22.077Z,9.10
2018-03-06T17:04:49.678Z,9.00
2018-03-06T17:07:17.190Z,9.10
2018-03-06T17:09:44.717Z,9.00
2018-03-06T17:12:12.293Z,8.90
2018-03-06T17:14:40.576Z,9.00
2018-03-06T17:17:08.129Z,8.90
2018-03-06T17:19:35.772Z,8.80
2018-03-06T17:22:04.325Z,8.70
2018-03-06T17:24:31.858Z,8.70
2018-03-06T17:26:59.449Z,8.70
2018-03-06T17:29:27.013Z,8.50
2018-03-06T17:31:54.552Z,8.40
2018-03-06T17:34:22.109Z,8.30
2018-03-06T17:36:49.741Z,8.10
2018-03-06T17:39:17.337Z,8.00
2018-03-06T17:41:44.892Z,7.90
2018-03-06T17:44:12.474Z,7.80
2018-03-06T17:46:40.012Z,7.70
2018-03-06T17:49:07.677Z,7.50
2018-03-06T17:51:35.216Z,7.40
2018-03-06T17:54:02.830Z,7.40
2018-03-06T17:56:31.190Z,7.30
2018-03-06T17:58:58.727Z,7.20
2018-03-06T18:01:26.287Z,7.30
2018-03-06T18:03:54.676Z,7.20
2018-03-06T18:06:22.203Z,7.10
2018-03-06T18:08:49.806Z,7.10
2018-03-06T18:11:17.425Z,7.00
2018-03-06T18:13:44.948Z,7.10
2018-03-06T18:16:13.259Z,6.90
2018-03-06T18:18:40.801Z,6.90
2018-03-06T18:21:08.396Z,6.90
2018-03-06T18:23:35.920Z,7.00
2018-03-06T18:26:04.226Z,7.00
2018-03-06T18:28:31.764Z,6.90
2018-03-06T18:30:59.329Z,6.90
2018-03-06T18:33:26.873Z,6.90
2018-03-06T18:35:54.409Z,6.90
2018-03-06T18:38:22.742Z,6.90
2018-03-06T18:40:50.303Z,6.90
2018-03-06T18:43:17.854Z,7.00
2018-03-06T18:45:45.383Z,7.00
2018-03-06T18:48:12.922Z,6.90
2018-03-06T18:50:53.121Z,6.90
2018-03-06T18:53:20.682Z,6.80
2018-03-06T18:55:48.310Z,6.90
2018-03-06T18:58:15.866Z,6.90
2018-03-06T19:01:04.777Z,6.90
2018-03-06T19:03:44.121Z,6.90
2018-03-06T19:06:23.522Z,6.90
2018-03-06T19:08:51.074Z,6.90
2018-03-06T19:11:18.677Z,6.90
2018-03-06T19:13:46.610Z,6.90
2018-03-06T19:16:14.171Z,6.90
2018-03-06T19:18:41.751Z,6.90
2018-03-06T19:21:09.574Z,6.90
2018-03-06T19:23:37.128Z,6.90
2018-03-06T19:26:04.833Z,6.90
2018-03-06T19:28:32.484Z,6.90
2018-03-06T19:31:00.162Z,6.90
2018-03-06T19:33:28.747Z,6.80
2018-03-06T19:35:56.301Z,6.80
2018-03-06T19:38:23.783Z,6.80
2018-03-06T19:40:51.326Z,6.80
2018-03-06T19:43:18.834Z,6.70
2018-03-06T19:45:46.367Z,6.60
2018-03-06T19:48:14.671Z,6.60
2018-03-06T19:50:42.199Z,6.50
2018-03-06T19:53:10.533Z,6.40
2018-03-06T19:55:38.051Z,6.40
2018-03-06T19:58:06.412Z,6.30
2018-03-06T20:00:33.846Z,6.30
2018-03-06T20:03:01.326Z,6.30
2018-03-06T20:05:29.620Z,6.20
2018-03-06T20:07:57.948Z,6.10
2018-03-06T20:10:25.430Z,6.10
2018-03-06T20:12:52.923Z,6.10
2018-03-06T20:15:20.466Z,6.00
2018-03-06T20:17:48.711Z,5.90
2018-03-06T20:20:16.214Z,5.90
2018-03-06T20:22:43.692Z,5.90
2018-03-06T20:25:16.883Z,5.80
2018-03-06T20:27:44.402Z,5.70
2018-03-06T20:30:18.551Z,5.60
2018-03-06T20:32:51.709Z,5.50
2018-03-06T20:35:20.020Z,5.40
2018-03-06T20:37:47.581Z,5.40
2018-03-06T20:40:20.701Z,5.40
2018-03-06T20:42:48.203Z,5.30
2018-03-06T20:45:15.820Z,5.20
2018-03-06T20:47:43.376Z,5.10
2018-03-06T20:50:10.854Z,5.10
2018-03-06T20:52:44.843Z,5.00
2018-03-06T20:55:12.335Z,5.00
2018-03-06T20:57:40.595Z,4.80
2018-03-06T21:00:08.071Z,4.80
2018-03-06T21:02:36.169Z,4.80
2018-03-06T21:05:03.944Z,4.70
2018-03-06T21:07:32.431Z,4.50
2018-03-06T21:09:59.937Z,4.50
2018-03-06T21:12:28.182Z,4.40
2018-03-06T21:14:55.667Z,4.40
2018-03-06T21:17:23.942Z,4.30
2018-03-06T21:19:51.564Z,4.30
2018-03-06T21:22:19.043Z,4.30
2018-03-06T21:24:46.526Z,4.30
2018-03-06T21:27:14.775Z,4.20
2018-03-06T21:29:42.770Z,4.20
2018-03-06T21:32:10.509Z,4.20
2018-03-06T21:34:38.119Z,4.20
2018-03-06T21:37:05.591Z,4.20
2018-03-06T21:39:33.073Z,4.20
2018-03-06T21:42:00.602Z,4.20
2018-03-06T21:44:36.083Z,4.20
2018-03-06T21:47:04.558Z,4.30
2018-03-06T21:49:32.466Z,4.30
2018-03-06T21:51:59.940Z,4.30
2018-03-06T21:54:27.600Z,4.30
2018-03-06T21:56:58.470Z,4.40
2018-03-06T21:59:26.043Z,4.40
2018-03-06T22:01:53.576Z,4.40
2018-03-06T22:04:21.888Z,4.50
2018-03-06T22:06:49.392Z,4.40
2018-03-06T22:09:17.869Z,4.50
2018-03-06T22:11:46.763Z,4.50
2018-03-06T22:14:14.779Z,4.50
2018-03-06T22:16:43.095Z,4.40
2018-03-06T22:19:11.599Z,4.40
2018-03-06T22:21:39.075Z,4.50
2018-03-06T22:24:06.566Z,4.50
2018-03-06T22:26:34.878Z,4.50
2018-03-06T22:29:02.372Z,4.50
2018-03-06T22:31:29.849Z,4.50
2018-03-06T22:33:58.103Z,4.50
2018-03-06T22:36:25.579Z,4.40
2018-03-06T22:38:53.058Z,4.50
2018-03-06T22:41:21.312Z,4.50
2018-03-06T22:43:48.786Z,4.40
2018-03-06T22:46:17.022Z,4.40
2018-03-06T22:48:44.619Z,4.40
2018-03-06T22:51:12.846Z,4.40
2018-03-06T22:53:40.390Z,4.40
2018-03-06T22:56:07.866Z,4.40
2018-03-06T22:58:35.338Z,4.30
2018-03-06T23:01:02.852Z,4.30
2018-03-06T23:03:31.082Z,4.30
2018-03-06T23:05:58.590Z,4.30
2018-03-06T23:08:26.059Z,4.30
2018-03-06T23:10:53.531Z,4.30
2018-03-06T23:13:21.018Z,4.30
2018-03-06T23:15:48.574Z,4.30
2018-03-06T23:18:16.038Z,4.20
2018-03-06T23:20:44.324Z,4.30
2018-03-06T23:23:11.831Z,4.30
2018-03-06T23:25:39.325Z,4.30
2018-03-06T23:28:06.821Z,4.30
2018-03-06T23:30:34.314Z,4.20
2018-03-06T23:33:01.783Z,4.30
2018-03-06T23:35:29.286Z,4.30
2018-03-06T23:37:56.769Z,4.30
2018-03-06T23:40:24.239Z,4.30
2018-03-06T23:42:51.728Z,4.30
2018-03-06T23:45:19.999Z,4.30
2018-03-06T23:47:48.277Z,4.40
2018-03-06T23:50:16.514Z,4.40
2018-03-06T23:52:43.987Z,4.30
2018-03-06T23:55:11.482Z,4.40
2018-03-06T23:57:39.731Z,4.40
